sensor_id;sensor_type;location;lat;lon;timestamp;temperature;humidity
66726;HTU21D;53638;51.062;5.804;2023-07-20T00:01:25;19.24;118.99
66726;HTU21D;53638;51.062;5.804;2023-07-20T00:03:51;19.24;118.99
66726;HTU21D;53638;51.062;5.804;2023-07-20T00:06:23;19.21;118.99
66726;HTU21D;53638;51.062;5.804;2023-07-20T00:08:49;19.13;118.99
66726;HTU21D;53638;51.062;5.804;2023-07-20T00:11:15;19.03;118.99
66726;HTU21D;53638;51.062;5.804;2023-07-20T00:13:41;18.94;118.99
66726;HTU21D;53638;51.062;5.804;2023-07-20T00:16:07;18.86;118.99
66726;HTU21D;53638;51.062;5.804;2023-07-20T00:18:33;18.76;118.99
66726;HTU21D;53638;51.062;5.804;2023-07-20T00:20:59;18.69;118.99
66726;HTU21D;53638;51.062;5.804;2023-07-20T00:23:25;18.62;118.99
66726;HTU21D;53638;51.062;5.804;2023-07-20T00:25:52;18.56;118.99
66726;HTU21D;53638;51.062;5.804;2023-07-20T00:28:18;18.52;118.99
66726;HTU21D;53638;51.062;5.804;2023-07-20T00:30:44;18.52;118.99
66726;HTU21D;53638;51.062;5.804;2023-07-20T00:33:11;18.48;118.99
66726;HTU21D;53638;51.062;5.804;2023-07-20T00:35:38;18.43;118.99
66726;HTU21D;53638;51.062;5.804;2023-07-20T00:38:04;18.39;118.99
66726;HTU21D;53638;51.062;5.804;2023-07-20T00:40:37;18.34;118.99
66726;HTU21D;53638;51.062;5.804;2023-07-20T00:43:03;18.27;118.99
66726;HTU21D;53638;51.062;5.804;2023-07-20T00:45:30;18.23;118.99
66726;HTU21D;53638;51.062;5.804;2023-07-20T00:47:57;18.19;118.99
66726;HTU21D;53638;51.062;5.804;2023-07-20T00:50:24;18.17;118.99
66726;HTU21D;53638;51.062;5.804;2023-07-20T00:52:50;18.12;118.99
66726;HTU21D;53638;51.062;5.804;2023-07-20T00:55:19;18.08;118.99
66726;HTU21D;53638;51.062;5.804;2023-07-20T00:57:46;18.08;118.99
66726;HTU21D;53638;51.062;5.804;2023-07-20T01:00:12;18.07;118.99
66726;HTU21D;53638;51.062;5.804;2023-07-20T01:02:38;18.09;118.99
66726;HTU21D;53638;51.062;5.804;2023-07-20T01:05:06;18.13;118.99
66726;HTU21D;53638;51.062;5.804;2023-07-20T01:07:38;18.17;118.99
66726;HTU21D;53638;51.062;5.804;2023-07-20T01:12:43;18.13;118.99
66726;HTU21D;53638;51.062;5.804;2023-07-20T01:15:09;18.12;118.99
66726;HTU21D;53638;51.062;5.804;2023-07-20T01:17:36;18.06;118.99
66726;HTU21D;53638;51.062;5.804;2023-07-20T01:20:02;18.00;118.99
66726;HTU21D;53638;51.062;5.804;2023-07-20T01:22:35;17.99;118.99
66726;HTU21D;53638;51.062;5.804;2023-07-20T01:25:33;18.02;118.99
66726;HTU21D;53638;51.062;5.804;2023-07-20T01:32:58;18.27;118.99
66726;HTU21D;53638;51.062;5.804;2023-07-20T01:35:29;18.30;118.99
66726;HTU21D;53638;51.062;5.804;2023-07-20T01:37:56;18.32;118.99
66726;HTU21D;53638;51.062;5.804;2023-07-20T01:40:24;18.33;118.99
66726;HTU21D;53638;51.062;5.804;2023-07-20T01:42:52;18.37;118.99
66726;HTU21D;53638;51.062;5.804;2023-07-20T01:45:19;18.42;118.99
66726;HTU21D;53638;51.062;5.804;2023-07-20T01:47:45;18.44;118.99
66726;HTU21D;53638;51.062;5.804;2023-07-20T01:50:11;18.48;118.99
66726;HTU21D;53638;51.062;5.804;2023-07-20T01:52:37;18.52;118.99
66726;HTU21D;53638;51.062;5.804;2023-07-20T01:55:03;18.54;118.99
66726;HTU21D;53638;51.062;5.804;2023-07-20T01:57:31;18.54;118.99
66726;HTU21D;53638;51.062;5.804;2023-07-20T01:59:57;18.49;118.99
66726;HTU21D;53638;51.062;5.804;2023-07-20T02:02:26;18.47;118.99
66726;HTU21D;53638;51.062;5.804;2023-07-20T02:04:54;18.44;118.99
66726;HTU21D;53638;51.062;5.804;2023-07-20T02:07:20;18.43;118.99
66726;HTU21D;53638;51.062;5.804;2023-07-20T02:09:46;18.39;118.99
66726;HTU21D;53638;51.062;5.804;2023-07-20T02:12:13;18.34;118.99
66726;HTU21D;53638;51.062;5.804;2023-07-20T02:14:38;18.27;118.99
66726;HTU21D;53638;51.062;5.804;2023-07-20T02:17:04;18.21;118.99
66726;HTU21D;53638;51.062;5.804;2023-07-20T02:19:30;18.13;118.99
66726;HTU21D;53638;51.062;5.804;2023-07-20T02:21:56;18.08;118.99
66726;HTU21D;53638;51.062;5.804;2023-07-20T02:24:23;17.97;118.99
66726;HTU21D;53638;51.062;5.804;2023-07-20T02:26:48;17.89;118.99
66726;HTU21D;53638;51.062;5.804;2023-07-20T02:29:14;17.84;118.99
66726;HTU21D;53638;51.062;5.804;2023-07-20T02:31:40;17.81;118.99
66726;HTU21D;53638;51.062;5.804;2023-07-20T02:34:08;17.76;118.99
66726;HTU21D;53638;51.062;5.804;2023-07-20T02:36:35;17.72;118.99
66726;HTU21D;53638;51.062;5.804;2023-07-20T02:39:01;17.68;118.99
66726;HTU21D;53638;51.062;5.804;2023-07-20T02:41:31;17.66;118.99
66726;HTU21D;53638;51.062;5.804;2023-07-20T02:43:56;17.63;118.99
66726;HTU21D;53638;51.062;5.804;2023-07-20T02:46:23;17.66;118.99
66726;HTU21D;53638;51.062;5.804;2023-07-20T02:48:48;17.74;118.99
66726;HTU21D;53638;51.062;5.804;2023-07-20T02:51:14;17.84;118.99
66726;HTU21D;53638;51.062;5.804;2023-07-20T02:53:40;17.98;118.99
66726;HTU21D;53638;51.062;5.804;2023-07-20T02:56:07;18.06;118.99
66726;HTU21D;53638;51.062;5.804;2023-07-20T02:58:34;18.08;118.99
66726;HTU21D;53638;51.062;5.804;2023-07-20T03:01:04;18.02;118.99
66726;HTU21D;53638;51.062;5.804;2023-07-20T03:03:30;17.97;118.99
66726;HTU21D;53638;51.062;5.804;2023-07-20T03:05:56;17.93;118.99
66726;HTU21D;53638;51.062;5.804;2023-07-20T03:08:23;17.94;118.99
66726;HTU21D;53638;51.062;5.804;2023-07-20T03:10:49;17.97;118.99
66726;HTU21D;53638;51.062;5.804;2023-07-20T03:13:16;18.03;118.99
66726;HTU21D;53638;51.062;5.804;2023-07-20T03:15:42;18.07;118.99
66726;HTU21D;53638;51.062;5.804;2023-07-20T03:18:08;18.03;118.99
66726;HTU21D;53638;51.062;5.804;2023-07-20T03:20:35;17.94;118.99
66726;HTU21D;53638;51.062;5.804;2023-07-20T03:23:01;17.88;118.99
66726;HTU21D;53638;51.062;5.804;2023-07-20T03:25:28;17.91;118.99
66726;HTU21D;53638;51.062;5.804;2023-07-20T03:27:53;17.97;118.99
66726;HTU21D;53638;51.062;5.804;2023-07-20T03:30:20;18.03;118.99
66726;HTU21D;53638;51.062;5.804;2023-07-20T03:32:46;18.08;118.99
66726;HTU21D;53638;51.062;5.804;2023-07-20T03:35:12;18.13;118.99
66726;HTU21D;53638;51.062;5.804;2023-07-20T03:37:38;18.21;118.99
66726;HTU21D;53638;51.062;5.804;2023-07-20T03:40:04;18.18;118.99
66726;HTU21D;53638;51.062;5.804;2023-07-20T03:42:30;18.21;118.99
66726;HTU21D;53638;51.062;5.804;2023-07-20T03:44:56;18.19;118.99
66726;HTU21D;53638;51.062;5.804;2023-07-20T03:47:22;18.17;118.99
66726;HTU21D;53638;51.062;5.804;2023-07-20T03:49:49;18.15;118.99
66726;HTU21D;53638;51.062;5.804;2023-07-20T03:52:15;18.13;118.99
66726;HTU21D;53638;51.062;5.804;2023-07-20T03:54:41;18.11;118.99
66726;HTU21D;53638;51.062;5.804;2023-07-20T03:57:07;18.10;118.99
66726;HTU21D;53638;51.062;5.804;2023-07-20T03:59:33;18.07;118.99
66726;HTU21D;53638;51.062;5.804;2023-07-20T04:01:59;18.05;118.99
66726;HTU21D;53638;51.062;5.804;2023-07-20T04:04:25;18.03;118.99
66726;HTU21D;53638;51.062;5.804;2023-07-20T04:06:51;18.00;118.99
66726;HTU21D;53638;51.062;5.804;2023-07-20T04:09:18;17.95;118.99
66726;HTU21D;53638;51.062;5.804;2023-07-20T04:11:44;17.90;118.99
66726;HTU21D;53638;51.062;5.804;2023-07-20T04:14:10;17.92;118.99
66726;HTU21D;53638;51.062;5.804;2023-07-20T04:16:36;17.97;118.99
66726;HTU21D;53638;51.062;5.804;2023-07-20T04:19:03;18.03;118.99
66726;HTU21D;53638;51.062;5.804;2023-07-20T04:21:28;18.08;118.99
66726;HTU21D;53638;51.062;5.804;2023-07-20T04:23:55;18.11;118.99
66726;HTU21D;53638;51.062;5.804;2023-07-20T04:26:21;18.10;118.99
66726;HTU21D;53638;51.062;5.804;2023-07-20T04:28:48;18.11;118.99
66726;HTU21D;53638;51.062;5.804;2023-07-20T04:31:26;18.18;118.99
66726;HTU21D;53638;51.062;5.804;2023-07-20T04:33:52;18.22;118.99
66726;HTU21D;53638;51.062;5.804;2023-07-20T04:36:18;18.25;118.99
66726;HTU21D;53638;51.062;5.804;2023-07-20T04:38:46;18.27;118.99
66726;HTU21D;53638;51.062;5.804;2023-07-20T04:41:17;18.19;118.99
66726;HTU21D;53638;51.062;5.804;2023-07-20T04:43:46;18.13;118.99
66726;HTU21D;53638;51.062;5.804;2023-07-20T04:46:15;18.13;118.99
66726;HTU21D;53638;51.062;5.804;2023-07-20T04:48:43;18.13;118.99
66726;HTU21D;53638;51.062;5.804;2023-07-20T04:51:09;18.18;118.99
66726;HTU21D;53638;51.062;5.804;2023-07-20T04:53:36;18.25;118.99
66726;HTU21D;53638;51.062;5.804;2023-07-20T04:56:02;18.33;118.99
66726;HTU21D;53638;51.062;5.804;2023-07-20T04:58:28;18.40;118.99
66726;HTU21D;53638;51.062;5.804;2023-07-20T05:00:55;18.40;118.99
66726;HTU21D;53638;51.062;5.804;2023-07-20T05:03:21;18.36;118.99
66726;HTU21D;53638;51.062;5.804;2023-07-20T05:05:48;18.35;118.99
66726;HTU21D;53638;51.062;5.804;2023-07-20T05:08:15;18.37;118.99
66726;HTU21D;53638;51.062;5.804;2023-07-20T05:10:42;18.36;118.99
66726;HTU21D;53638;51.062;5.804;2023-07-20T05:13:08;18.38;118.99
66726;HTU21D;53638;51.062;5.804;2023-07-20T05:15:34;18.38;118.99
66726;HTU21D;53638;51.062;5.804;2023-07-20T05:18:03;18.43;118.99
66726;HTU21D;53638;51.062;5.804;2023-07-20T05:20:28;18.42;118.99
66726;HTU21D;53638;51.062;5.804;2023-07-20T05:22:54;18.48;118.99
66726;HTU21D;53638;51.062;5.804;2023-07-20T05:25:20;18.51;118.99
66726;HTU21D;53638;51.062;5.804;2023-07-20T05:27:48;18.58;118.99
66726;HTU21D;53638;51.062;5.804;2023-07-20T05:30:18;18.71;118.99
66726;HTU21D;53638;51.062;5.804;2023-07-20T05:32:47;18.78;118.99
66726;HTU21D;53638;51.062;5.804;2023-07-20T05:35:18;18.81;118.99
66726;HTU21D;53638;51.062;5.804;2023-07-20T05:37:45;18.83;118.99
66726;HTU21D;53638;51.062;5.804;2023-07-20T05:40:12;18.89;118.99
66726;HTU21D;53638;51.062;5.804;2023-07-20T05:42:39;18.84;118.99
66726;HTU21D;53638;51.062;5.804;2023-07-20T05:45:05;18.78;118.99
66726;HTU21D;53638;51.062;5.804;2023-07-20T05:47:32;18.72;118.99
66726;HTU21D;53638;51.062;5.804;2023-07-20T05:49:57;18.77;118.99
66726;HTU21D;53638;51.062;5.804;2023-07-20T05:52:23;18.86;118.99
66726;HTU21D;53638;51.062;5.804;2023-07-20T05:54:49;18.99;118.99
66726;HTU21D;53638;51.062;5.804;2023-07-20T05:57:15;19.05;118.99
66726;HTU21D;53638;51.062;5.804;2023-07-20T05:59:41;19.11;118.99
66726;HTU21D;53638;51.062;5.804;2023-07-20T06:02:11;19.22;118.99
66726;HTU21D;53638;51.062;5.804;2023-07-20T06:04:38;19.29;118.99
66726;HTU21D;53638;51.062;5.804;2023-07-20T06:07:04;19.33;118.99
66726;HTU21D;53638;51.062;5.804;2023-07-20T06:09:31;19.38;118.99
66726;HTU21D;53638;51.062;5.804;2023-07-20T06:11:57;19.48;118.99
66726;HTU21D;53638;51.062;5.804;2023-07-20T06:14:22;19.56;118.99
66726;HTU21D;53638;51.062;5.804;2023-07-20T06:16:49;19.68;118.99
66726;HTU21D;53638;51.062;5.804;2023-07-20T06:19:15;19.79;118.99
66726;HTU21D;53638;51.062;5.804;2023-07-20T06:21:41;19.84;118.99
66726;HTU21D;53638;51.062;5.804;2023-07-20T06:24:10;19.85;118.99
66726;HTU21D;53638;51.062;5.804;2023-07-20T06:26:36;19.89;118.99
66726;HTU21D;53638;51.062;5.804;2023-07-20T06:29:05;19.97;118.99
66726;HTU21D;53638;51.062;5.804;2023-07-20T06:31:33;20.02;118.99
66726;HTU21D;53638;51.062;5.804;2023-07-20T06:33:59;20.12;118.99
66726;HTU21D;53638;51.062;5.804;2023-07-20T06:36:26;20.14;118.99
66726;HTU21D;53638;51.062;5.804;2023-07-20T06:38:52;20.20;118.99
66726;HTU21D;53638;51.062;5.804;2023-07-20T06:41:18;20.41;118.99
66726;HTU21D;53638;51.062;5.804;2023-07-20T06:43:45;20.66;118.99
66726;HTU21D;53638;51.062;5.804;2023-07-20T06:46:11;20.79;118.99
66726;HTU21D;53638;51.062;5.804;2023-07-20T06:48:37;20.86;118.99
66726;HTU21D;53638;51.062;5.804;2023-07-20T06:51:03;20.91;118.99
66726;HTU21D;53638;51.062;5.804;2023-07-20T06:53:29;20.94;118.99
66726;HTU21D;53638;51.062;5.804;2023-07-20T06:55:55;20.93;118.99
66726;HTU21D;53638;51.062;5.804;2023-07-20T06:58:24;20.91;118.99
66726;HTU21D;53638;51.062;5.804;2023-07-20T07:00:50;20.91;118.99
66726;HTU21D;53638;51.062;5.804;2023-07-20T07:03:16;20.96;118.99
66726;HTU21D;53638;51.062;5.804;2023-07-20T07:05:43;21.06;118.99
66726;HTU21D;53638;51.062;5.804;2023-07-20T07:08:10;21.20;118.99
66726;HTU21D;53638;51.062;5.804;2023-07-20T07:10:36;21.32;118.99
66726;HTU21D;53638;51.062;5.804;2023-07-20T07:13:02;21.35;118.99
66726;HTU21D;53638;51.062;5.804;2023-07-20T07:15:29;21.36;118.99
66726;HTU21D;53638;51.062;5.804;2023-07-20T07:17:55;21.34;118.99
66726;HTU21D;53638;51.062;5.804;2023-07-20T07:20:21;21.34;118.99
66726;HTU21D;53638;51.062;5.804;2023-07-20T07:22:50;21.21;118.99
66726;HTU21D;53638;51.062;5.804;2023-07-20T07:25:16;21.03;118.99
66726;HTU21D;53638;51.062;5.804;2023-07-20T07:27:42;20.84;118.99
66726;HTU21D;53638;51.062;5.804;2023-07-20T07:30:08;20.60;118.99
66726;HTU21D;53638;51.062;5.804;2023-07-20T07:32:34;20.43;118.99
66726;HTU21D;53638;51.062;5.804;2023-07-20T07:35:00;20.31;118.99
66726;HTU21D;53638;51.062;5.804;2023-07-20T07:37:26;20.32;118.99
66726;HTU21D;53638;51.062;5.804;2023-07-20T07:39:52;20.42;118.99
66726;HTU21D;53638;51.062;5.804;2023-07-20T07:42:18;20.65;118.99
66726;HTU21D;53638;51.062;5.804;2023-07-20T07:44:44;21.03;118.99
66726;HTU21D;53638;51.062;5.804;2023-07-20T07:47:10;21.39;118.99
66726;HTU21D;53638;51.062;5.804;2023-07-20T07:49:36;21.72;118.99
66726;HTU21D;53638;51.062;5.804;2023-07-20T07:52:02;22.02;118.99
66726;HTU21D;53638;51.062;5.804;2023-07-20T07:54:28;22.24;118.99
66726;HTU21D;53638;51.062;5.804;2023-07-20T07:56:55;22.32;118.99
66726;HTU21D;53638;51.062;5.804;2023-07-20T07:59:21;22.38;118.99
66726;HTU21D;53638;51.062;5.804;2023-07-20T08:01:47;22.48;117.31
66726;HTU21D;53638;51.062;5.804;2023-07-20T08:04:12;22.33;116.03
66726;HTU21D;53638;51.062;5.804;2023-07-20T08:06:39;22.12;118.40
66726;HTU21D;53638;51.062;5.804;2023-07-20T08:09:05;22.03;118.30
66726;HTU21D;53638;51.062;5.804;2023-07-20T08:11:31;21.99;118.99
66726;HTU21D;53638;51.062;5.804;2023-07-20T08:14:00;21.84;118.35
66726;HTU21D;53638;51.062;5.804;2023-07-20T08:16:26;21.63;117.83
66726;HTU21D;53638;51.062;5.804;2023-07-20T08:18:52;21.59;116.95
66726;HTU21D;53638;51.062;5.804;2023-07-20T08:21:18;21.63;116.14
66726;HTU21D;53638;51.062;5.804;2023-07-20T08:23:44;21.64;116.31
66726;HTU21D;53638;51.062;5.804;2023-07-20T08:26:11;21.68;116.03
66726;HTU21D;53638;51.062;5.804;2023-07-20T08:28:37;21.76;114.25
66726;HTU21D;53638;51.062;5.804;2023-07-20T08:31:05;21.79;113.85
66726;HTU21D;53638;51.062;5.804;2023-07-20T08:33:31;21.75;112.39
66726;HTU21D;53638;51.062;5.804;2023-07-20T08:36:00;21.72;114.14
66726;HTU21D;53638;51.062;5.804;2023-07-20T08:38:27;21.60;113.49
66726;HTU21D;53638;51.062;5.804;2023-07-20T08:40:53;21.58;112.34
66726;HTU21D;53638;51.062;5.804;2023-07-20T08:43:23;21.64;111.54
66726;HTU21D;53638;51.062;5.804;2023-07-20T08:45:54;21.79;109.93
66726;HTU21D;53638;51.062;5.804;2023-07-20T08:48:21;22.04;109.62
66726;HTU21D;53638;51.062;5.804;2023-07-20T08:50:50;22.18;107.20
66726;HTU21D;53638;51.062;5.804;2023-07-20T08:53:18;22.36;106.30
66726;HTU21D;53638;51.062;5.804;2023-07-20T08:55:45;22.58;104.84
66726;HTU21D;53638;51.062;5.804;2023-07-20T08:58:13;22.62;102.87
66726;HTU21D;53638;51.062;5.804;2023-07-20T09:00:41;22.63;100.24
66726;HTU21D;53638;51.062;5.804;2023-07-20T09:03:08;22.63;99.04
66726;HTU21D;53638;51.062;5.804;2023-07-20T09:05:35;22.61;99.03
66726;HTU21D;53638;51.062;5.804;2023-07-20T09:08:01;22.64;97.44
66726;HTU21D;53638;51.062;5.804;2023-07-20T09:10:29;22.76;95.99
66726;HTU21D;53638;51.062;5.804;2023-07-20T09:12:55;22.90;95.94
66726;HTU21D;53638;51.062;5.804;2023-07-20T09:15:22;23.10;98.84
66726;HTU21D;53638;51.062;5.804;2023-07-20T09:17:50;23.38;96.09
66726;HTU21D;53638;51.062;5.804;2023-07-20T09:20:18;23.60;92.92
66726;HTU21D;53638;51.062;5.804;2023-07-20T09:22:44;23.76;92.28
66726;HTU21D;53638;51.062;5.804;2023-07-20T09:25:13;23.89;89.92
66726;HTU21D;53638;51.062;5.804;2023-07-20T09:27:42;23.91;89.50
66726;HTU21D;53638;51.062;5.804;2023-07-20T09:30:09;23.95;90.17
66726;HTU21D;53638;51.062;5.804;2023-07-20T09:32:40;23.89;87.67
66726;HTU21D;53638;51.062;5.804;2023-07-20T09:37:39;23.73;85.62
66726;HTU21D;53638;51.062;5.804;2023-07-20T09:40:07;23.73;85.58
66726;HTU21D;53638;51.062;5.804;2023-07-20T09:42:35;23.67;83.77
66726;HTU21D;53638;51.062;5.804;2023-07-20T09:45:02;23.72;83.71
66726;HTU21D;53638;51.062;5.804;2023-07-20T09:47:28;23.76;84.06
66726;HTU21D;53638;51.062;5.804;2023-07-20T09:50:00;23.77;85.37
66726;HTU21D;53638;51.062;5.804;2023-07-20T09:52:27;23.77;85.55
66726;HTU21D;53638;51.062;5.804;2023-07-20T09:54:55;23.72;85.84
66726;HTU21D;53638;51.062;5.804;2023-07-20T09:57:21;23.89;85.36
66726;HTU21D;53638;51.062;5.804;2023-07-20T09:59:47;24.04;84.15
66726;HTU21D;53638;51.062;5.804;2023-07-20T10:02:20;24.26;82.13
66726;HTU21D;53638;51.062;5.804;2023-07-20T10:04:51;24.33;79.56
66726;HTU21D;53638;51.062;5.804;2023-07-20T10:07:19;24.60;77.92
66726;HTU21D;53638;51.062;5.804;2023-07-20T10:09:48;24.75;78.37
66726;HTU21D;53638;51.062;5.804;2023-07-20T10:12:15;24.89;78.02
66726;HTU21D;53638;51.062;5.804;2023-07-20T10:14:52;25.04;79.05
66726;HTU21D;53638;51.062;5.804;2023-07-20T10:17:22;25.17;77.56
66726;HTU21D;53638;51.062;5.804;2023-07-20T10:19:54;25.33;78.40
66726;HTU21D;53638;51.062;5.804;2023-07-20T10:22:26;25.48;77.22
66726;HTU21D;53638;51.062;5.804;2023-07-20T10:24:53;25.58;76.60
66726;HTU21D;53638;51.062;5.804;2023-07-20T10:27:20;25.52;76.41
66726;HTU21D;53638;51.062;5.804;2023-07-20T10:29:48;25.44;75.65
66726;HTU21D;53638;51.062;5.804;2023-07-20T10:32:14;25.25;74.99
66726;HTU21D;53638;51.062;5.804;2023-07-20T10:34:41;25.17;75.29
66726;HTU21D;53638;51.062;5.804;2023-07-20T10:37:06;25.16;75.87
66726;HTU21D;53638;51.062;5.804;2023-07-20T10:39:33;25.30;75.92
66726;HTU21D;53638;51.062;5.804;2023-07-20T10:44:27;25.33;72.98
66726;HTU21D;53638;51.062;5.804;2023-07-20T10:47:00;25.08;73.02
66726;HTU21D;53638;51.062;5.804;2023-07-20T10:49:27;24.80;73.11
66726;HTU21D;53638;51.062;5.804;2023-07-20T10:51:58;24.79;72.27
66726;HTU21D;53638;51.062;5.804;2023-07-20T10:56:52;25.48;71.57
66726;HTU21D;53638;51.062;5.804;2023-07-20T11:01:55;25.54;72.54
66726;HTU21D;53638;51.062;5.804;2023-07-20T11:04:41;25.97;72.50
66726;HTU21D;53638;51.062;5.804;2023-07-20T11:07:07;26.25;71.08
66726;HTU21D;53638;51.062;5.804;2023-07-20T11:09:34;26.31;69.81
66726;HTU21D;53638;51.062;5.804;2023-07-20T11:12:15;26.42;69.88
66726;HTU21D;53638;51.062;5.804;2023-07-20T11:14:43;26.57;69.74
66726;HTU21D;53638;51.062;5.804;2023-07-20T11:17:13;26.72;68.83
66726;HTU21D;53638;51.062;5.804;2023-07-20T11:19:40;26.71;68.36
66726;HTU21D;53638;51.062;5.804;2023-07-20T11:22:07;26.60;68.26
66726;HTU21D;53638;51.062;5.804;2023-07-20T11:24:33;26.67;68.63
66726;HTU21D;53638;51.062;5.804;2023-07-20T11:27:00;26.75;68.07
66726;HTU21D;53638;51.062;5.804;2023-07-20T11:29:27;27.54;66.24
66726;HTU21D;53638;51.062;5.804;2023-07-20T11:31:53;28.98;60.03
66726;HTU21D;53638;51.062;5.804;2023-07-20T11:34:20;30.20;56.72
66726;HTU21D;53638;51.062;5.804;2023-07-20T11:36:48;31.97;50.88
66726;HTU21D;53638;51.062;5.804;2023-07-20T11:39:17;33.35;47.88
66726;HTU21D;53638;51.062;5.804;2023-07-20T11:41:53;34.22;46.19
66726;HTU21D;53638;51.062;5.804;2023-07-20T11:44:22;35.27;45.11
66726;HTU21D;53638;51.062;5.804;2023-07-20T11:47:06;36.36;42.80
66726;HTU21D;53638;51.062;5.804;2023-07-20T11:49:40;36.68;41.37
66726;HTU21D;53638;51.062;5.804;2023-07-20T11:52:08;36.84;40.73
66726;HTU21D;53638;51.062;5.804;2023-07-20T11:54:37;35.59;42.00
66726;HTU21D;53638;51.062;5.804;2023-07-20T11:57:04;36.23;41.57
66726;HTU21D;53638;51.062;5.804;2023-07-20T11:59:31;35.71;41.39
66726;HTU21D;53638;51.062;5.804;2023-07-20T12:02:01;35.43;42.23
66726;HTU21D;53638;51.062;5.804;2023-07-20T12:04:30;35.52;41.48
66726;HTU21D;53638;51.062;5.804;2023-07-20T12:06:56;34.52;42.16
66726;HTU21D;53638;51.062;5.804;2023-07-20T12:09:22;33.66;43.71
66726;HTU21D;53638;51.062;5.804;2023-07-20T12:11:50;33.44;44.09
66726;HTU21D;53638;51.062;5.804;2023-07-20T12:14:16;33.62;43.76
66726;HTU21D;53638;51.062;5.804;2023-07-20T12:16:43;35.24;40.74
66726;HTU21D;53638;51.062;5.804;2023-07-20T12:19:11;36.67;39.46
66726;HTU21D;53638;51.062;5.804;2023-07-20T12:21:38;37.71;36.65
66726;HTU21D;53638;51.062;5.804;2023-07-20T12:24:06;37.94;36.47
66726;HTU21D;53638;51.062;5.804;2023-07-20T12:26:33;38.20;36.01
66726;HTU21D;53638;51.062;5.804;2023-07-20T12:29:00;37.70;36.43
66726;HTU21D;53638;51.062;5.804;2023-07-20T12:31:27;37.18;36.95
66726;HTU21D;53638;51.062;5.804;2023-07-20T12:33:54;36.04;37.88
66726;HTU21D;53638;51.062;5.804;2023-07-20T12:36:21;34.75;39.10
66726;HTU21D;53638;51.062;5.804;2023-07-20T12:38:47;33.27;41.39
66726;HTU21D;53638;51.062;5.804;2023-07-20T12:41:13;31.61;43.72
66726;HTU21D;53638;51.062;5.804;2023-07-20T12:43:42;30.08;46.71
66726;HTU21D;53638;51.062;5.804;2023-07-20T12:46:09;29.03;49.33
66726;HTU21D;53638;51.062;5.804;2023-07-20T12:48:36;28.41;50.98
66726;HTU21D;53638;51.062;5.804;2023-07-20T12:51:03;28.20;52.23
66726;HTU21D;53638;51.062;5.804;2023-07-20T12:53:31;28.00;52.55
66726;HTU21D;53638;51.062;5.804;2023-07-20T12:55:58;27.88;52.30
66726;HTU21D;53638;51.062;5.804;2023-07-20T12:58:25;28.01;52.14
66726;HTU21D;53638;51.062;5.804;2023-07-20T13:00:51;28.58;51.85
66726;HTU21D;53638;51.062;5.804;2023-07-20T13:03:17;30.52;47.92
66726;HTU21D;53638;51.062;5.804;2023-07-20T13:05:45;30.44;47.59
66726;HTU21D;53638;51.062;5.804;2023-07-20T13:08:11;29.77;48.50
66726;HTU21D;53638;51.062;5.804;2023-07-20T13:10:38;29.37;50.88
66726;HTU21D;53638;51.062;5.804;2023-07-20T13:13:05;30.27;48.89
66726;HTU21D;53638;51.062;5.804;2023-07-20T13:15:32;30.13;48.04
66726;HTU21D;53638;51.062;5.804;2023-07-20T13:17:59;29.36;48.98
66726;HTU21D;53638;51.062;5.804;2023-07-20T13:20:26;28.50;50.76
66726;HTU21D;53638;51.062;5.804;2023-07-20T13:22:53;27.80;53.11
66726;HTU21D;53638;51.062;5.804;2023-07-20T13:25:19;27.35;54.48
66726;HTU21D;53638;51.062;5.804;2023-07-20T13:27:45;27.20;54.77
66726;HTU21D;53638;51.062;5.804;2023-07-20T13:30:11;27.40;54.84
66726;HTU21D;53638;51.062;5.804;2023-07-20T13:32:44;27.53;54.39
66726;HTU21D;53638;51.062;5.804;2023-07-20T13:35:11;27.58;53.19
66726;HTU21D;53638;51.062;5.804;2023-07-20T13:37:37;27.67;53.23
66726;HTU21D;53638;51.062;5.804;2023-07-20T13:40:03;27.88;54.36
66726;HTU21D;53638;51.062;5.804;2023-07-20T13:42:32;28.29;54.64
66726;HTU21D;53638;51.062;5.804;2023-07-20T13:44:58;28.50;53.45
66726;HTU21D;53638;51.062;5.804;2023-07-20T13:47:24;28.55;53.78
66726;HTU21D;53638;51.062;5.804;2023-07-20T13:49:50;28.37;53.94
66726;HTU21D;53638;51.062;5.804;2023-07-20T13:52:16;28.20;54.23
66726;HTU21D;53638;51.062;5.804;2023-07-20T13:54:41;28.08;54.33
66726;HTU21D;53638;51.062;5.804;2023-07-20T13:57:07;28.11;55.13
66726;HTU21D;53638;51.062;5.804;2023-07-20T13:59:33;28.24;54.66
66726;HTU21D;53638;51.062;5.804;2023-07-20T14:01:59;28.39;54.34
66726;HTU21D;53638;51.062;5.804;2023-07-20T14:04:25;28.41;54.21
66726;HTU21D;53638;51.062;5.804;2023-07-20T14:06:51;28.39;54.34
66726;HTU21D;53638;51.062;5.804;2023-07-20T14:09:17;28.41;54.18
66726;HTU21D;53638;51.062;5.804;2023-07-20T14:11:43;28.24;54.05
66726;HTU21D;53638;51.062;5.804;2023-07-20T14:14:09;28.24;53.30
66726;HTU21D;53638;51.062;5.804;2023-07-20T14:16:35;28.46;52.91
66726;HTU21D;53638;51.062;5.804;2023-07-20T14:19:01;28.85;52.00
66726;HTU21D;53638;51.062;5.804;2023-07-20T14:21:27;29.21;51.26
66726;HTU21D;53638;51.062;5.804;2023-07-20T14:23:54;29.94;49.75
66726;HTU21D;53638;51.062;5.804;2023-07-20T14:26:20;31.65;47.67
66726;HTU21D;53638;51.062;5.804;2023-07-20T14:28:47;34.10;43.72
66726;HTU21D;53638;51.062;5.804;2023-07-20T14:31:13;34.93;42.68
66726;HTU21D;53638;51.062;5.804;2023-07-20T14:33:39;35.03;42.63
66726;HTU21D;53638;51.062;5.804;2023-07-20T14:36:05;35.26;41.83
66726;HTU21D;53638;51.062;5.804;2023-07-20T14:38:33;35.11;40.79
66726;HTU21D;53638;51.062;5.804;2023-07-20T14:40:59;34.42;40.90
66726;HTU21D;53638;51.062;5.804;2023-07-20T14:43:25;33.73;41.87
66726;HTU21D;53638;51.062;5.804;2023-07-20T14:45:51;33.22;42.72
66726;HTU21D;53638;51.062;5.804;2023-07-20T14:48:17;32.79;42.63
66726;HTU21D;53638;51.062;5.804;2023-07-20T14:50:43;32.23;42.98
66726;HTU21D;53638;51.062;5.804;2023-07-20T14:53:12;31.73;44.00
66726;HTU21D;53638;51.062;5.804;2023-07-20T14:55:38;31.43;44.41
66726;HTU21D;53638;51.062;5.804;2023-07-20T14:58:04;31.23;45.93
66726;HTU21D;53638;51.062;5.804;2023-07-20T15:00:30;31.45;45.52
66726;HTU21D;53638;51.062;5.804;2023-07-20T15:02:56;32.54;44.13
66726;HTU21D;53638;51.062;5.804;2023-07-20T15:05:23;33.22;42.90
66726;HTU21D;53638;51.062;5.804;2023-07-20T15:07:50;33.21;42.18
66726;HTU21D;53638;51.062;5.804;2023-07-20T15:10:16;33.06;42.19
66726;HTU21D;53638;51.062;5.804;2023-07-20T15:12:42;32.69;42.63
66726;HTU21D;53638;51.062;5.804;2023-07-20T15:15:11;32.14;43.09
66726;HTU21D;53638;51.062;5.804;2023-07-20T15:17:40;31.71;43.89
66726;HTU21D;53638;51.062;5.804;2023-07-20T15:20:10;31.38;44.61
66726;HTU21D;53638;51.062;5.804;2023-07-20T15:22:36;30.89;45.81
66726;HTU21D;53638;51.062;5.804;2023-07-20T15:25:03;30.39;46.41